KGRK/GRK METAR and TAF weather

Enter ICAO airport designator
Station Type Date Time Source
KGRK METAR 2018/12/19 09:40 UTC NOAA

KGRK 190940Z 00000KT 1/2SM R15/2200FT FG VV001 12/11 A2990 RMK AO2A LTG DSNT E SLP122


Station Type Date Time Source
KGRK Decoded METAR 2018/12/19 09:40 UTC NOAA

Fort Hood, Robert Gray AAF Ft Hood, TX, United States (KGRK) 31-04N 097-49W
Dec 19, 2018 - 04:40 AM EST / 2018.12.19 0940 UTC
Wind: Calm:0
Visibility: 1/2 mile(s):0
Sky conditions: obscured
Weather: fog; Lightning observed
Temperature: 53 F (12 C)
Dew Point: 51 F (11 C)
Relative Humidity: 93%
Pressure (altimeter): 29.9 in. Hg (1012 hPa)
ob: KGRK 190940Z 00000KT 1/2SM R15/2200FT FG VV001 12/11 A2990 RMK AO2A LTG DSNT E SLP122
cycle: 9

Station Type Date Time Source
KGRK TAF 2018/12/19 08:12 UTC NOAA

TAF KGRK 190800Z 1908/2014 VRB06KT 1600 BR OVC001 QNH2987INS
BECMG 1911/1912 VRB06KT 3200 BR OVC002 QNH2983INS
BECMG 1918/1919 VRB06KT 8000 BR OVC006 QNH2980INS
BECMG 1920/1921 VRB06KT 6000 -SHRA BKN021 QNH2975INS
BECMG 2000/2001 30006KT 8000 BR BKN020 QNH2976INS
BECMG 2002/2003 31006KT 3200 BR FEW020 QNH2984INS
BECMG 2009/2010 33012KT 9999 NSW SKC 530005 QNH2987INS TX15/1921Z TN10/1910Z


Example: see airport list